Forecast: partly cloudy and cooler.
Maungaraki, Lower Hutt, NZ - Weather provided by OnThe Internet.co.nz
LAST READING AT TIME: 11:13 AM DATE: 01 January 2015, time of next update: 11:59 pm
Current WeatherDry Current Temperature 16.6°C (61.8°F), Apparent temp 15.8°C
Maximum Temperature (since midnight)16.7°C at: 11:01 AM Minimum Temperature (since midnight)13.2°C at: 6:55 AM
Average windspeed (ten minute)10.7 kmh (5.8 kts) Wind Direction (ten minute)S (173°)
Windchill Temperature 16.6°C Maximum Gust (last hour)25.7 kmh (13.9 kts) at: 10:40 AM
Maximum Gust (since midnight)50.0 kmh (27.0 kts) at: 12:02 AM Maximum 1 minute average (since midnight)38.0 kmh (20.5 kts) at: 12:15 AM
Rainfall (last hour)0.0 mm Rainfall (since midnight)0.0 mm (0.00 in.)---
Rainfall This month 0.0 mm (0.00 in.) Rainfall To date this year 0.0 mm (0.00 in.)
Maximum rain per minute (last hour)0.0 mm/min Maximum rain per hour (last 6 hours)0.0 mm/hour
Yesterdays rainfall 11.6 mm DewPoint 12.5°C (Wet Bulb :14.3°C )
Humidity 77 %, Humidex 19.1°C Barometer corrected to msl1015.4 mb
Pressure change +0.7 mb (last hour) Trend (last hour)RISING SLOWLY
Pressure change (last 12 hours)+11.0 mb Pressure change (last 6 hours)+7.3 mb

This page is updated from recent data collected by a DAVIS VANTAGE PRO weather station Use the Reload or Refresh facility on your browser to retrieve the latest data.


Latest Web Cam Image


Weather report/Warning/Metars

Wellington Airport, New Zealand (NZWN) 41-20S 174-48E 8M
Dec 31, 2014 - 04:30 PM EST / 2014.12.31 2130 UTC
Wind: from the S (170 degrees) at 17 MPH (15 KT):0
Visibility: greater than 7 mile(s):0
Sky conditions: mostly clear
Temperature: 62 F (17 C)
Dew Point: 51 F (11 C)
Relative Humidity: 67%
Pressure (altimeter): 30.00 in. Hg (1016 hPa)
ob: NZWN 312130Z AUTO 17015KT 9999 FEW020/// 17/11 Q1016 NOSIG
cycle: 21
Auckland Airport, New Zealand (NZAA) 37-01S 174-48E 6M
Dec 31, 2014 - 04:30 PM EST / 2014.12.31 2130 UTC
Wind: from the SSW (200 degrees) at 16 MPH (14 KT):0
Visibility: greater than 7 mile(s):0
Temperature: 68 F (20 C)
Dew Point: 55 F (13 C)
Relative Humidity: 64%
Pressure (altimeter): 30.00 in. Hg (1016 hPa)
ob: NZAA 312130Z AUTO 20014KT 9999 NCD 20/13 Q1016 NOSIG
cycle: 21
Christchurch, New Zealand (NZCH) 43-29S 172-33E 30M
Dec 31, 2014 - 04:30 PM EST / 2014.12.31 2130 UTC
Wind: from the SE (130 degrees) at 5 MPH (4 KT) (direction variable):0
Visibility: greater than 7 mile(s):0
Sky conditions: partly cloudy
Temperature: 62 F (17 C)
Dew Point: 42 F (6 C)
Relative Humidity: 48%
Pressure (altimeter): 29.97 in. Hg (1015 hPa)
ob: NZCH 312130Z AUTO 13004KT 340V280 9999 SCT047/// 17/06 Q1015 BECMG FM2200 06012KT
cycle: 21



Use the RELOAD facility on your browser to retrieve the latest data.

Daily Fire weather Index for this station
Click here for a daily update of the averages/extremes to date for the month
Created by "Weather Display" software version 10.37R Build 45 3:07 pm 02/01/13